sensor_id;sensor_type;location;lat;lon;timestamp;P1;durP1;ratioP1;P2;durP2;ratioP2
61435;SDS011;47304;47.456;19.160;2023-06-26T00:00:11;10.20;;;4.70;;
61435;SDS011;47304;47.456;19.160;2023-06-26T00:02:39;10.40;;;5.30;;
61435;SDS011;47304;47.456;19.160;2023-06-26T00:05:06;9.80;;;5.30;;
61435;SDS011;47304;47.456;19.160;2023-06-26T00:07:33;10.70;;;5.00;;
61435;SDS011;47304;47.456;19.160;2023-06-26T00:09:59;9.90;;;5.00;;
61435;SDS011;47304;47.456;19.160;2023-06-26T00:12:27;9.40;;;5.10;;
61435;SDS011;47304;47.456;19.160;2023-06-26T00:14:53;11.30;;;5.50;;
61435;SDS011;47304;47.456;19.160;2023-06-26T00:17:20;11.40;;;5.70;;
61435;SDS011;47304;47.456;19.160;2023-06-26T00:19:47;10.40;;;5.50;;
61435;SDS011;47304;47.456;19.160;2023-06-26T00:22:14;10.60;;;6.00;;
61435;SDS011;47304;47.456;19.160;2023-06-26T00:24:40;10.30;;;5.80;;
61435;SDS011;47304;47.456;19.160;2023-06-26T00:27:07;9.90;;;5.30;;
61435;SDS011;47304;47.456;19.160;2023-06-26T00:29:34;9.80;;;5.30;;
61435;SDS011;47304;47.456;19.160;2023-06-26T00:32:00;13.40;;;6.20;;
61435;SDS011;47304;47.456;19.160;2023-06-26T00:34:27;9.00;;;5.30;;
61435;SDS011;47304;47.456;19.160;2023-06-26T00:36:53;11.00;;;5.90;;
61435;SDS011;47304;47.456;19.160;2023-06-26T00:39:20;9.80;;;5.70;;
61435;SDS011;47304;47.456;19.160;2023-06-26T00:41:47;10.30;;;5.90;;
61435;SDS011;47304;47.456;19.160;2023-06-26T00:44:13;10.50;;;5.80;;
61435;SDS011;47304;47.456;19.160;2023-06-26T00:46:40;11.80;;;6.20;;
61435;SDS011;47304;47.456;19.160;2023-06-26T00:49:06;10.70;;;6.00;;
61435;SDS011;47304;47.456;19.160;2023-06-26T00:51:33;11.70;;;6.20;;
61435;SDS011;47304;47.456;19.160;2023-06-26T00:54:00;10.70;;;6.10;;
61435;SDS011;47304;47.456;19.160;2023-06-26T00:56:27;10.10;;;5.50;;
61435;SDS011;47304;47.456;19.160;2023-06-26T00:58:54;10.00;;;6.10;;
61435;SDS011;47304;47.456;19.160;2023-06-26T01:01:21;12.40;;;5.90;;
61435;SDS011;47304;47.456;19.160;2023-06-26T01:03:48;12.00;;;6.20;;
61435;SDS011;47304;47.456;19.160;2023-06-26T01:06:16;10.40;;;6.10;;
61435;SDS011;47304;47.456;19.160;2023-06-26T01:08:43;11.10;;;5.70;;
61435;SDS011;47304;47.456;19.160;2023-06-26T01:11:11;11.60;;;6.00;;
61435;SDS011;47304;47.456;19.160;2023-06-26T01:13:39;11.60;;;6.10;;
61435;SDS011;47304;47.456;19.160;2023-06-26T01:16:07;10.70;;;5.80;;
61435;SDS011;47304;47.456;19.160;2023-06-26T01:18:35;9.60;;;5.80;;
61435;SDS011;47304;47.456;19.160;2023-06-26T01:21:04;12.20;;;6.00;;
61435;SDS011;47304;47.456;19.160;2023-06-26T01:23:34;9.30;;;5.50;;
61435;SDS011;47304;47.456;19.160;2023-06-26T01:26:20;10.10;;;6.00;;
61435;SDS011;47304;47.456;19.160;2023-06-26T01:28:51;11.30;;;6.00;;
61435;SDS011;47304;47.456;19.160;2023-06-26T01:31:19;10.40;;;5.90;;
61435;SDS011;47304;47.456;19.160;2023-06-26T01:33:46;10.10;;;6.00;;
61435;SDS011;47304;47.456;19.160;2023-06-26T01:36:13;11.60;;;6.00;;
61435;SDS011;47304;47.456;19.160;2023-06-26T01:38:40;10.40;;;6.00;;
61435;SDS011;47304;47.456;19.160;2023-06-26T01:41:07;11.00;;;6.30;;
61435;SDS011;47304;47.456;19.160;2023-06-26T01:54:27;11.80;;;7.10;;
61435;SDS011;47304;47.456;19.160;2023-06-26T01:56:58;11.70;;;6.50;;
61435;SDS011;47304;47.456;19.160;2023-06-26T01:59:25;12.60;;;6.90;;
61435;SDS011;47304;47.456;19.160;2023-06-26T02:01:54;12.40;;;6.80;;
61435;SDS011;47304;47.456;19.160;2023-06-26T02:04:21;12.70;;;7.10;;
61435;SDS011;47304;47.456;19.160;2023-06-26T02:06:48;11.20;;;6.70;;
61435;SDS011;47304;47.456;19.160;2023-06-26T02:09:14;11.00;;;6.80;;
61435;SDS011;47304;47.456;19.160;2023-06-26T02:11:42;11.40;;;7.00;;
61435;SDS011;47304;47.456;19.160;2023-06-26T02:14:08;11.00;;;6.30;;
61435;SDS011;47304;47.456;19.160;2023-06-26T02:16:35;12.20;;;6.90;;
61435;SDS011;47304;47.456;19.160;2023-06-26T02:19:01;11.70;;;6.40;;
61435;SDS011;47304;47.456;19.160;2023-06-26T02:21:28;10.80;;;6.30;;
61435;SDS011;47304;47.456;19.160;2023-06-26T02:23:55;12.00;;;7.20;;
61435;SDS011;47304;47.456;19.160;2023-06-26T02:26:21;11.00;;;7.10;;
61435;SDS011;47304;47.456;19.160;2023-06-26T02:28:48;10.00;;;6.30;;
61435;SDS011;47304;47.456;19.160;2023-06-26T02:31:14;11.90;;;7.10;;
61435;SDS011;47304;47.456;19.160;2023-06-26T02:33:41;13.00;;;7.70;;
61435;SDS011;47304;47.456;19.160;2023-06-26T02:36:08;14.60;;;8.50;;
61435;SDS011;47304;47.456;19.160;2023-06-26T02:38:34;13.00;;;7.70;;
61435;SDS011;47304;47.456;19.160;2023-06-26T02:41:01;13.50;;;8.00;;
61435;SDS011;47304;47.456;19.160;2023-06-26T02:43:27;13.00;;;8.40;;
61435;SDS011;47304;47.456;19.160;2023-06-26T02:45:54;12.80;;;7.90;;
61435;SDS011;47304;47.456;19.160;2023-06-26T02:48:20;12.90;;;8.30;;
61435;SDS011;47304;47.456;19.160;2023-06-26T02:50:47;13.00;;;8.00;;
61435;SDS011;47304;47.456;19.160;2023-06-26T02:53:14;12.80;;;7.60;;
61435;SDS011;47304;47.456;19.160;2023-06-26T02:55:40;12.40;;;7.90;;
61435;SDS011;47304;47.456;19.160;2023-06-26T02:58:07;12.20;;;7.70;;
61435;SDS011;47304;47.456;19.160;2023-06-26T03:00:33;10.70;;;7.00;;
61435;SDS011;47304;47.456;19.160;2023-06-26T03:03:00;14.10;;;8.50;;
61435;SDS011;47304;47.456;19.160;2023-06-26T03:05:27;12.50;;;6.90;;
61435;SDS011;47304;47.456;19.160;2023-06-26T03:07:53;12.50;;;7.60;;
61435;SDS011;47304;47.456;19.160;2023-06-26T03:10:20;11.80;;;7.90;;
61435;SDS011;47304;47.456;19.160;2023-06-26T03:12:46;12.40;;;7.80;;
61435;SDS011;47304;47.456;19.160;2023-06-26T03:15:13;11.60;;;7.50;;
61435;SDS011;47304;47.456;19.160;2023-06-26T03:17:39;13.50;;;7.50;;
61435;SDS011;47304;47.456;19.160;2023-06-26T03:20:06;13.70;;;7.90;;
61435;SDS011;47304;47.456;19.160;2023-06-26T03:22:33;12.10;;;7.60;;
61435;SDS011;47304;47.456;19.160;2023-06-26T03:25:01;13.00;;;7.50;;
61435;SDS011;47304;47.456;19.160;2023-06-26T03:27:28;11.90;;;7.40;;
61435;SDS011;47304;47.456;19.160;2023-06-26T03:29:55;12.30;;;7.30;;
61435;SDS011;47304;47.456;19.160;2023-06-26T03:32:21;12.50;;;7.50;;
61435;SDS011;47304;47.456;19.160;2023-06-26T03:34:48;11.80;;;7.60;;
61435;SDS011;47304;47.456;19.160;2023-06-26T03:37:15;11.10;;;7.50;;
61435;SDS011;47304;47.456;19.160;2023-06-26T03:39:41;12.40;;;7.80;;
61435;SDS011;47304;47.456;19.160;2023-06-26T03:42:08;10.80;;;6.80;;
61435;SDS011;47304;47.456;19.160;2023-06-26T03:44:34;12.80;;;8.00;;
61435;SDS011;47304;47.456;19.160;2023-06-26T03:47:01;12.20;;;7.60;;
61435;SDS011;47304;47.456;19.160;2023-06-26T03:49:27;13.50;;;8.40;;
61435;SDS011;47304;47.456;19.160;2023-06-26T03:51:54;12.70;;;7.70;;
61435;SDS011;47304;47.456;19.160;2023-06-26T03:54:20;11.60;;;7.60;;
61435;SDS011;47304;47.456;19.160;2023-06-26T03:56:47;10.90;;;7.10;;
61435;SDS011;47304;47.456;19.160;2023-06-26T03:59:14;10.50;;;6.70;;
61435;SDS011;47304;47.456;19.160;2023-06-26T04:01:40;12.30;;;7.30;;
61435;SDS011;47304;47.456;19.160;2023-06-26T04:04:07;11.10;;;6.90;;
61435;SDS011;47304;47.456;19.160;2023-06-26T04:06:34;11.90;;;7.30;;
61435;SDS011;47304;47.456;19.160;2023-06-26T04:09:00;13.90;;;7.70;;
61435;SDS011;47304;47.456;19.160;2023-06-26T04:11:27;10.30;;;6.90;;
61435;SDS011;47304;47.456;19.160;2023-06-26T04:13:53;10.40;;;6.80;;
61435;SDS011;47304;47.456;19.160;2023-06-26T04:16:20;11.80;;;7.20;;
61435;SDS011;47304;47.456;19.160;2023-06-26T04:18:47;12.00;;;7.30;;
61435;SDS011;47304;47.456;19.160;2023-06-26T04:21:14;12.20;;;6.90;;
61435;SDS011;47304;47.456;19.160;2023-06-26T04:23:40;12.70;;;7.50;;
61435;SDS011;47304;47.456;19.160;2023-06-26T04:26:07;12.00;;;6.90;;
61435;SDS011;47304;47.456;19.160;2023-06-26T04:28:34;11.40;;;7.10;;
61435;SDS011;47304;47.456;19.160;2023-06-26T04:31:01;13.40;;;7.20;;
61435;SDS011;47304;47.456;19.160;2023-06-26T04:33:28;11.60;;;7.00;;
61435;SDS011;47304;47.456;19.160;2023-06-26T04:35:55;12.50;;;7.60;;
61435;SDS011;47304;47.456;19.160;2023-06-26T04:38:21;11.30;;;7.30;;
61435;SDS011;47304;47.456;19.160;2023-06-26T04:40:48;12.90;;;7.30;;
61435;SDS011;47304;47.456;19.160;2023-06-26T04:43:15;12.50;;;7.60;;
61435;SDS011;47304;47.456;19.160;2023-06-26T04:45:41;11.90;;;7.20;;
61435;SDS011;47304;47.456;19.160;2023-06-26T04:48:08;11.40;;;7.30;;
61435;SDS011;47304;47.456;19.160;2023-06-26T04:50:34;12.90;;;7.60;;
61435;SDS011;47304;47.456;19.160;2023-06-26T04:53:02;11.40;;;7.10;;
61435;SDS011;47304;47.456;19.160;2023-06-26T04:55:28;13.00;;;7.30;;
61435;SDS011;47304;47.456;19.160;2023-06-26T04:57:55;11.50;;;7.20;;
61435;SDS011;47304;47.456;19.160;2023-06-26T05:00:21;11.70;;;7.30;;
61435;SDS011;47304;47.456;19.160;2023-06-26T05:02:48;11.80;;;7.20;;
61435;SDS011;47304;47.456;19.160;2023-06-26T05:05:14;12.10;;;6.70;;
61435;SDS011;47304;47.456;19.160;2023-06-26T05:07:41;12.10;;;7.30;;
61435;SDS011;47304;47.456;19.160;2023-06-26T05:10:08;11.40;;;7.00;;
61435;SDS011;47304;47.456;19.160;2023-06-26T05:12:34;12.90;;;8.00;;
61435;SDS011;47304;47.456;19.160;2023-06-26T05:15:01;12.40;;;7.20;;
61435;SDS011;47304;47.456;19.160;2023-06-26T05:17:27;13.90;;;7.80;;
61435;SDS011;47304;47.456;19.160;2023-06-26T05:19:54;13.00;;;8.00;;
61435;SDS011;47304;47.456;19.160;2023-06-26T05:22:21;12.30;;;7.40;;
61435;SDS011;47304;47.456;19.160;2023-06-26T05:24:48;12.80;;;7.60;;
61435;SDS011;47304;47.456;19.160;2023-06-26T05:27:16;11.20;;;7.30;;
61435;SDS011;47304;47.456;19.160;2023-06-26T05:29:43;12.20;;;7.80;;
61435;SDS011;47304;47.456;19.160;2023-06-26T05:32:10;13.10;;;7.30;;
61435;SDS011;47304;47.456;19.160;2023-06-26T05:34:39;12.70;;;7.80;;
61435;SDS011;47304;47.456;19.160;2023-06-26T05:37:07;14.60;;;8.10;;
61435;SDS011;47304;47.456;19.160;2023-06-26T05:39:34;10.50;;;7.00;;
61435;SDS011;47304;47.456;19.160;2023-06-26T05:42:01;13.00;;;7.50;;
61435;SDS011;47304;47.456;19.160;2023-06-26T05:44:28;11.90;;;7.70;;
61435;SDS011;47304;47.456;19.160;2023-06-26T05:46:54;11.60;;;7.40;;
61435;SDS011;47304;47.456;19.160;2023-06-26T05:49:21;11.70;;;7.40;;
61435;SDS011;47304;47.456;19.160;2023-06-26T05:51:47;14.10;;;7.60;;
61435;SDS011;47304;47.456;19.160;2023-06-26T05:54:14;12.80;;;8.20;;
61435;SDS011;47304;47.456;19.160;2023-06-26T05:56:41;12.40;;;8.50;;
61435;SDS011;47304;47.456;19.160;2023-06-26T05:59:09;12.60;;;8.40;;
61435;SDS011;47304;47.456;19.160;2023-06-26T06:01:38;14.30;;;8.20;;
61435;SDS011;47304;47.456;19.160;2023-06-26T06:04:04;14.20;;;7.20;;
61435;SDS011;47304;47.456;19.160;2023-06-26T06:06:31;12.60;;;7.60;;
61435;SDS011;47304;47.456;19.160;2023-06-26T06:08:57;10.90;;;6.50;;
61435;SDS011;47304;47.456;19.160;2023-06-26T06:11:24;12.10;;;7.40;;
61435;SDS011;47304;47.456;19.160;2023-06-26T06:13:50;10.60;;;6.80;;
61435;SDS011;47304;47.456;19.160;2023-06-26T06:16:17;12.80;;;7.10;;
61435;SDS011;47304;47.456;19.160;2023-06-26T06:18:43;12.00;;;6.80;;
61435;SDS011;47304;47.456;19.160;2023-06-26T06:21:10;10.60;;;6.30;;
61435;SDS011;47304;47.456;19.160;2023-06-26T06:23:37;12.10;;;7.00;;
61435;SDS011;47304;47.456;19.160;2023-06-26T06:26:03;13.20;;;7.00;;
61435;SDS011;47304;47.456;19.160;2023-06-26T06:28:30;10.90;;;6.50;;
61435;SDS011;47304;47.456;19.160;2023-06-26T06:30:56;21.20;;;12.90;;
61435;SDS011;47304;47.456;19.160;2023-06-26T06:33:23;19.30;;;11.70;;
61435;SDS011;47304;47.456;19.160;2023-06-26T06:35:49;16.20;;;9.20;;
61435;SDS011;47304;47.456;19.160;2023-06-26T06:38:16;12.70;;;7.20;;
61435;SDS011;47304;47.456;19.160;2023-06-26T06:40:43;11.10;;;6.40;;
61435;SDS011;47304;47.456;19.160;2023-06-26T06:43:09;10.30;;;6.20;;
61435;SDS011;47304;47.456;19.160;2023-06-26T06:45:36;11.10;;;5.70;;
61435;SDS011;47304;47.456;19.160;2023-06-26T06:48:02;9.90;;;5.90;;
61435;SDS011;47304;47.456;19.160;2023-06-26T06:50:29;10.10;;;5.80;;
61435;SDS011;47304;47.456;19.160;2023-06-26T06:52:56;10.90;;;5.90;;
61435;SDS011;47304;47.456;19.160;2023-06-26T06:55:22;10.10;;;6.00;;
61435;SDS011;47304;47.456;19.160;2023-06-26T06:57:49;10.00;;;5.60;;
61435;SDS011;47304;47.456;19.160;2023-06-26T07:00:16;12.90;;;6.40;;
61435;SDS011;47304;47.456;19.160;2023-06-26T07:02:43;10.80;;;5.40;;
61435;SDS011;47304;47.456;19.160;2023-06-26T07:05:11;12.50;;;6.50;;
61435;SDS011;47304;47.456;19.160;2023-06-26T07:07:38;10.80;;;6.30;;
61435;SDS011;47304;47.456;19.160;2023-06-26T07:10:09;10.50;;;6.30;;
61435;SDS011;47304;47.456;19.160;2023-06-26T07:12:39;11.10;;;6.40;;
61435;SDS011;47304;47.456;19.160;2023-06-26T07:15:05;10.80;;;6.00;;
61435;SDS011;47304;47.456;19.160;2023-06-26T07:17:33;10.30;;;6.10;;
61435;SDS011;47304;47.456;19.160;2023-06-26T07:20:01;10.20;;;6.30;;
61435;SDS011;47304;47.456;19.160;2023-06-26T07:22:28;10.40;;;6.20;;
61435;SDS011;47304;47.456;19.160;2023-06-26T07:24:55;11.10;;;5.90;;
61435;SDS011;47304;47.456;19.160;2023-06-26T07:27:22;10.40;;;5.90;;
61435;SDS011;47304;47.456;19.160;2023-06-26T07:29:48;11.00;;;6.40;;
61435;SDS011;47304;47.456;19.160;2023-06-26T07:32:15;10.70;;;6.10;;
61435;SDS011;47304;47.456;19.160;2023-06-26T07:34:41;10.30;;;6.00;;
61435;SDS011;47304;47.456;19.160;2023-06-26T07:37:08;9.60;;;5.90;;
61435;SDS011;47304;47.456;19.160;2023-06-26T07:39:35;11.80;;;6.40;;
61435;SDS011;47304;47.456;19.160;2023-06-26T07:42:01;9.00;;;5.80;;
61435;SDS011;47304;47.456;19.160;2023-06-26T07:44:28;9.40;;;5.80;;
61435;SDS011;47304;47.456;19.160;2023-06-26T07:46:54;20.10;;;13.60;;
61435;SDS011;47304;47.456;19.160;2023-06-26T07:49:21;10.90;;;6.20;;
61435;SDS011;47304;47.456;19.160;2023-06-26T07:51:48;9.10;;;5.60;;
61435;SDS011;47304;47.456;19.160;2023-06-26T07:54:15;16.50;;;9.50;;
61435;SDS011;47304;47.456;19.160;2023-06-26T07:56:57;10.40;;;6.50;;
61435;SDS011;47304;47.456;19.160;2023-06-26T07:59:25;10.60;;;5.80;;
61435;SDS011;47304;47.456;19.160;2023-06-26T08:01:53;9.20;;;5.90;;
61435;SDS011;47304;47.456;19.160;2023-06-26T08:04:21;9.90;;;5.50;;
61435;SDS011;47304;47.456;19.160;2023-06-26T08:06:52;10.30;;;5.40;;
61435;SDS011;47304;47.456;19.160;2023-06-26T08:09:20;10.30;;;5.20;;
61435;SDS011;47304;47.456;19.160;2023-06-26T08:11:48;9.80;;;5.90;;
61435;SDS011;47304;47.456;19.160;2023-06-26T08:14:15;10.00;;;5.60;;
61435;SDS011;47304;47.456;19.160;2023-06-26T08:16:43;10.00;;;5.50;;
61435;SDS011;47304;47.456;19.160;2023-06-26T08:19:10;8.70;;;5.40;;
61435;SDS011;47304;47.456;19.160;2023-06-26T08:21:38;9.50;;;5.70;;
61435;SDS011;47304;47.456;19.160;2023-06-26T08:24:06;10.60;;;5.30;;
61435;SDS011;47304;47.456;19.160;2023-06-26T08:26:33;9.20;;;5.50;;
61435;SDS011;47304;47.456;19.160;2023-06-26T08:29:00;9.80;;;5.10;;
61435;SDS011;47304;47.456;19.160;2023-06-26T08:31:27;11.20;;;6.20;;
61435;SDS011;47304;47.456;19.160;2023-06-26T08:33:53;9.70;;;5.30;;
61435;SDS011;47304;47.456;19.160;2023-06-26T08:36:20;22.60;;;6.20;;
61435;SDS011;47304;47.456;19.160;2023-06-26T08:38:46;10.10;;;6.30;;
61435;SDS011;47304;47.456;19.160;2023-06-26T08:41:13;10.20;;;5.80;;
61435;SDS011;47304;47.456;19.160;2023-06-26T08:43:39;19.20;;;13.20;;
61435;SDS011;47304;47.456;19.160;2023-06-26T08:46:06;13.80;;;7.20;;
61435;SDS011;47304;47.456;19.160;2023-06-26T08:48:34;9.90;;;5.70;;
61435;SDS011;47304;47.456;19.160;2023-06-26T08:51:05;9.90;;;6.30;;
61435;SDS011;47304;47.456;19.160;2023-06-26T08:53:52;8.80;;;5.40;;
61435;SDS011;47304;47.456;19.160;2023-06-26T08:56:24;9.10;;;5.40;;
61435;SDS011;47304;47.456;19.160;2023-06-26T08:58:53;8.90;;;5.40;;
61435;SDS011;47304;47.456;19.160;2023-06-26T09:01:21;11.30;;;6.60;;
61435;SDS011;47304;47.456;19.160;2023-06-26T09:03:48;9.10;;;5.70;;
61435;SDS011;47304;47.456;19.160;2023-06-26T09:06:15;10.90;;;6.30;;
61435;SDS011;47304;47.456;19.160;2023-06-26T09:08:41;9.10;;;5.40;;
61435;SDS011;47304;47.456;19.160;2023-06-26T09:11:08;11.60;;;6.30;;
61435;SDS011;47304;47.456;19.160;2023-06-26T09:13:34;9.70;;;5.40;;
61435;SDS011;47304;47.456;19.160;2023-06-26T09:16:04;10.50;;;6.10;;
61435;SDS011;47304;47.456;19.160;2023-06-26T09:18:32;10.30;;;5.70;;
61435;SDS011;47304;47.456;19.160;2023-06-26T09:20:59;9.90;;;5.90;;
61435;SDS011;47304;47.456;19.160;2023-06-26T09:23:26;10.30;;;5.80;;
61435;SDS011;47304;47.456;19.160;2023-06-26T09:25:53;11.10;;;6.10;;
61435;SDS011;47304;47.456;19.160;2023-06-26T09:28:20;10.20;;;5.70;;
61435;SDS011;47304;47.456;19.160;2023-06-26T09:30:47;9.50;;;5.60;;
61435;SDS011;47304;47.456;19.160;2023-06-26T09:33:15;8.40;;;5.30;;
61435;SDS011;47304;47.456;19.160;2023-06-26T09:35:43;9.70;;;5.50;;
61435;SDS011;47304;47.456;19.160;2023-06-26T09:38:10;9.40;;;5.90;;
61435;SDS011;47304;47.456;19.160;2023-06-26T09:40:38;14.10;;;5.20;;
61435;SDS011;47304;47.456;19.160;2023-06-26T09:43:06;9.90;;;5.60;;
61435;SDS011;47304;47.456;19.160;2023-06-26T09:45:34;8.70;;;5.50;;
61435;SDS011;47304;47.456;19.160;2023-06-26T09:48:02;9.00;;;5.40;;
61435;SDS011;47304;47.456;19.160;2023-06-26T09:50:29;11.90;;;5.40;;
61435;SDS011;47304;47.456;19.160;2023-06-26T09:52:56;9.60;;;5.80;;
61435;SDS011;47304;47.456;19.160;2023-06-26T09:55:23;10.30;;;6.00;;
61435;SDS011;47304;47.456;19.160;2023-06-26T09:57:50;9.90;;;5.90;;
61435;SDS011;47304;47.456;19.160;2023-06-26T10:00:18;10.10;;;5.80;;
61435;SDS011;47304;47.456;19.160;2023-06-26T10:02:45;9.70;;;5.40;;
61435;SDS011;47304;47.456;19.160;2023-06-26T10:05:12;10.00;;;5.50;;
61435;SDS011;47304;47.456;19.160;2023-06-26T10:07:38;10.00;;;5.80;;
61435;SDS011;47304;47.456;19.160;2023-06-26T10:10:06;10.70;;;6.80;;
61435;SDS011;47304;47.456;19.160;2023-06-26T10:12:34;12.20;;;6.30;;
61435;SDS011;47304;47.456;19.160;2023-06-26T10:15:02;9.40;;;5.80;;
61435;SDS011;47304;47.456;19.160;2023-06-26T10:17:30;21.40;;;5.90;;
61435;SDS011;47304;47.456;19.160;2023-06-26T10:20:02;10.80;;;5.40;;
61435;SDS011;47304;47.456;19.160;2023-06-26T10:22:31;9.20;;;5.90;;
61435;SDS011;47304;47.456;19.160;2023-06-26T10:25:02;9.30;;;5.50;;
61435;SDS011;47304;47.456;19.160;2023-06-26T10:27:33;9.60;;;5.70;;
61435;SDS011;47304;47.456;19.160;2023-06-26T10:30:05;12.00;;;5.40;;
61435;SDS011;47304;47.456;19.160;2023-06-26T10:32:36;8.70;;;5.10;;
61435;SDS011;47304;47.456;19.160;2023-06-26T10:35:05;9.40;;;5.40;;
61435;SDS011;47304;47.456;19.160;2023-06-26T10:37:42;9.30;;;5.00;;
61435;SDS011;47304;47.456;19.160;2023-06-26T10:40:09;9.30;;;5.30;;
61435;SDS011;47304;47.456;19.160;2023-06-26T10:42:37;9.80;;;5.40;;
61435;SDS011;47304;47.456;19.160;2023-06-26T10:45:13;8.70;;;5.00;;
61435;SDS011;47304;47.456;19.160;2023-06-26T10:47:41;10.40;;;5.40;;
61435;SDS011;47304;47.456;19.160;2023-06-26T10:55:35;12.40;;;5.40;;
61435;SDS011;47304;47.456;19.160;2023-06-26T10:58:41;9.10;;;5.90;;
61435;SDS011;47304;47.456;19.160;2023-06-26T11:03:39;9.40;;;5.80;;
61435;SDS011;47304;47.456;19.160;2023-06-26T11:06:13;11.90;;;6.00;;
61435;SDS011;47304;47.456;19.160;2023-06-26T11:08:45;9.80;;;5.20;;
61435;SDS011;47304;47.456;19.160;2023-06-26T11:11:11;8.90;;;5.50;;
61435;SDS011;47304;47.456;19.160;2023-06-26T11:13:42;9.10;;;5.80;;
61435;SDS011;47304;47.456;19.160;2023-06-26T11:16:11;9.60;;;5.80;;
61435;SDS011;47304;47.456;19.160;2023-06-26T11:18:39;9.70;;;6.00;;
61435;SDS011;47304;47.456;19.160;2023-06-26T11:21:06;9.70;;;5.70;;
61435;SDS011;47304;47.456;19.160;2023-06-26T11:23:33;11.20;;;6.30;;
61435;SDS011;47304;47.456;19.160;2023-06-26T11:26:18;10.30;;;6.20;;
61435;SDS011;47304;47.456;19.160;2023-06-26T11:28:54;9.80;;;5.90;;
61435;SDS011;47304;47.456;19.160;2023-06-26T11:31:25;9.80;;;5.90;;
61435;SDS011;47304;47.456;19.160;2023-06-26T11:33:53;9.30;;;5.90;;
61435;SDS011;47304;47.456;19.160;2023-06-26T11:36:22;9.70;;;5.30;;
61435;SDS011;47304;47.456;19.160;2023-06-26T11:38:56;10.80;;;6.40;;
61435;SDS011;47304;47.456;19.160;2023-06-26T11:41:24;9.60;;;5.80;;
61435;SDS011;47304;47.456;19.160;2023-06-26T11:43:52;9.80;;;5.80;;
61435;SDS011;47304;47.456;19.160;2023-06-26T11:46:19;9.20;;;5.90;;
61435;SDS011;47304;47.456;19.160;2023-06-26T11:48:48;10.30;;;5.50;;
61435;SDS011;47304;47.456;19.160;2023-06-26T11:51:15;9.00;;;5.60;;
61435;SDS011;47304;47.456;19.160;2023-06-26T11:53:42;10.10;;;5.80;;
61435;SDS011;47304;47.456;19.160;2023-06-26T11:56:13;11.10;;;5.40;;
61435;SDS011;47304;47.456;19.160;2023-06-26T12:01:26;9.90;;;6.00;;
61435;SDS011;47304;47.456;19.160;2023-06-26T12:03:58;10.00;;;5.30;;
61435;SDS011;47304;47.456;19.160;2023-06-26T12:06:27;9.40;;;5.50;;
61435;SDS011;47304;47.456;19.160;2023-06-26T12:08:54;9.00;;;5.40;;
61435;SDS011;47304;47.456;19.160;2023-06-26T12:11:22;10.20;;;5.70;;
61435;SDS011;47304;47.456;19.160;2023-06-26T12:13:50;8.80;;;4.80;;
61435;SDS011;47304;47.456;19.160;2023-06-26T12:16:18;9.20;;;5.10;;
61435;SDS011;47304;47.456;19.160;2023-06-26T12:18:45;10.50;;;5.70;;
61435;SDS011;47304;47.456;19.160;2023-06-26T12:21:33;11.30;;;5.70;;
61435;SDS011;47304;47.456;19.160;2023-06-26T12:24:04;8.00;;;5.00;;
61435;SDS011;47304;47.456;19.160;2023-06-26T12:26:31;9.50;;;5.80;;
61435;SDS011;47304;47.456;19.160;2023-06-26T12:29:04;11.60;;;6.70;;
61435;SDS011;47304;47.456;19.160;2023-06-26T12:31:35;9.60;;;5.20;;
61435;SDS011;47304;47.456;19.160;2023-06-26T12:34:02;10.80;;;5.70;;
61435;SDS011;47304;47.456;19.160;2023-06-26T12:36:45;8.70;;;5.40;;
61435;SDS011;47304;47.456;19.160;2023-06-26T12:39:13;10.40;;;5.80;;
61435;SDS011;47304;47.456;19.160;2023-06-26T12:41:49;9.50;;;5.60;;
61435;SDS011;47304;47.456;19.160;2023-06-26T12:44:19;9.50;;;5.70;;
61435;SDS011;47304;47.456;19.160;2023-06-26T12:46:49;9.10;;;5.10;;
61435;SDS011;47304;47.456;19.160;2023-06-26T12:49:28;8.90;;;5.40;;
61435;SDS011;47304;47.456;19.160;2023-06-26T12:51:58;10.40;;;5.30;;
61435;SDS011;47304;47.456;19.160;2023-06-26T12:54:25;9.10;;;5.90;;
61435;SDS011;47304;47.456;19.160;2023-06-26T12:56:52;9.60;;;5.40;;
61435;SDS011;47304;47.456;19.160;2023-06-26T12:59:19;9.30;;;5.20;;
61435;SDS011;47304;47.456;19.160;2023-06-26T13:01:46;9.40;;;5.10;;
61435;SDS011;47304;47.456;19.160;2023-06-26T13:04:13;8.80;;;5.00;;
61435;SDS011;47304;47.456;19.160;2023-06-26T13:06:39;10.40;;;5.40;;
61435;SDS011;47304;47.456;19.160;2023-06-26T13:09:06;9.50;;;5.30;;
61435;SDS011;47304;47.456;19.160;2023-06-26T13:11:33;8.80;;;5.30;;
61435;SDS011;47304;47.456;19.160;2023-06-26T13:13:59;9.60;;;5.30;;
61435;SDS011;47304;47.456;19.160;2023-06-26T13:16:36;8.70;;;5.20;;
61435;SDS011;47304;47.456;19.160;2023-06-26T13:19:03;9.20;;;5.30;;
61435;SDS011;47304;47.456;19.160;2023-06-26T13:21:29;11.00;;;5.50;;
61435;SDS011;47304;47.456;19.160;2023-06-26T13:23:56;10.00;;;5.40;;
61435;SDS011;47304;47.456;19.160;2023-06-26T13:26:23;8.40;;;5.20;;
61435;SDS011;47304;47.456;19.160;2023-06-26T13:29:02;8.90;;;5.10;;
61435;SDS011;47304;47.456;19.160;2023-06-26T13:31:29;8.70;;;5.40;;
61435;SDS011;47304;47.456;19.160;2023-06-26T13:33:57;8.60;;;5.40;;
61435;SDS011;47304;47.456;19.160;2023-06-26T13:36:24;9.30;;;5.40;;
61435;SDS011;47304;47.456;19.160;2023-06-26T13:38:51;9.80;;;5.80;;
61435;SDS011;47304;47.456;19.160;2023-06-26T13:41:18;9.20;;;5.60;;
61435;SDS011;47304;47.456;19.160;2023-06-26T13:43:44;11.10;;;5.90;;
61435;SDS011;47304;47.456;19.160;2023-06-26T13:46:11;11.70;;;5.70;;
61435;SDS011;47304;47.456;19.160;2023-06-26T13:48:38;10.80;;;5.30;;
61435;SDS011;47304;47.456;19.160;2023-06-26T13:51:04;8.60;;;5.00;;
61435;SDS011;47304;47.456;19.160;2023-06-26T13:53:31;11.60;;;5.90;;
61435;SDS011;47304;47.456;19.160;2023-06-26T13:55:59;10.50;;;5.80;;
61435;SDS011;47304;47.456;19.160;2023-06-26T13:58:26;10.40;;;6.00;;
61435;SDS011;47304;47.456;19.160;2023-06-26T14:00:53;14.80;;;8.30;;
61435;SDS011;47304;47.456;19.160;2023-06-26T14:03:19;11.20;;;6.50;;
61435;SDS011;47304;47.456;19.160;2023-06-26T14:05:46;10.30;;;5.70;;
61435;SDS011;47304;47.456;19.160;2023-06-26T14:08:13;11.00;;;6.70;;
61435;SDS011;47304;47.456;19.160;2023-06-26T14:10:39;9.40;;;5.60;;
61435;SDS011;47304;47.456;19.160;2023-06-26T14:13:06;12.10;;;6.10;;
61435;SDS011;47304;47.456;19.160;2023-06-26T14:15:33;9.00;;;5.30;;
61435;SDS011;47304;47.456;19.160;2023-06-26T14:17:59;8.80;;;5.40;;
61435;SDS011;47304;47.456;19.160;2023-06-26T14:20:26;7.90;;;4.80;;
61435;SDS011;47304;47.456;19.160;2023-06-26T14:22:52;9.00;;;5.40;;
61435;SDS011;47304;47.456;19.160;2023-06-26T14:25:19;10.30;;;5.30;;
61435;SDS011;47304;47.456;19.160;2023-06-26T14:27:45;9.30;;;5.50;;
61435;SDS011;47304;47.456;19.160;2023-06-26T14:30:12;9.10;;;5.20;;
61435;SDS011;47304;47.456;19.160;2023-06-26T14:32:40;9.80;;;5.60;;
61435;SDS011;47304;47.456;19.160;2023-06-26T14:35:07;8.80;;;5.40;;
61435;SDS011;47304;47.456;19.160;2023-06-26T14:37:35;11.30;;;5.70;;
61435;SDS011;47304;47.456;19.160;2023-06-26T14:40:02;9.00;;;5.10;;
61435;SDS011;47304;47.456;19.160;2023-06-26T14:42:30;9.30;;;5.60;;
61435;SDS011;47304;47.456;19.160;2023-06-26T14:44:57;8.60;;;5.20;;
61435;SDS011;47304;47.456;19.160;2023-06-26T14:47:24;10.10;;;5.80;;
61435;SDS011;47304;47.456;19.160;2023-06-26T14:49:51;9.10;;;5.60;;